Startpagina
METAR-TAF:

METAR-TAF

Vliegvelden :

McKinley Park, Alaska, Verenigde Staten

breedte: 63-44N, lengte: 148-55W, hoogte: 524 m

Actueel weer

Dit bericht is 30 minuten geleden gemaakt, om 11:56 UTC
Wind 5 kt uit variabele richting
Temperatuur 3°C
Vochtigheid 70%
Druk 1019 hPa
Zicht: 16.1 km
Gebroken wolken op 5000 ft
Gebroken wolken op 7000 ft
Geheel bewolkt op 9000 ft

METAR: PAIN 251156Z VRB05KT 10SM BKN050 BKN070 OVC090 03/M02 A3008 RMK AO2 SLP212 60000 T00281017 10039 20022 53001

Tijdstip: 04:26 (12:26 UTC)


TAF: ontbreekt

Waarnemingen en weersverwachtingen van meer dan 4000 vliegvelden (METAR en TAF).

De beschikbare stations zijn de gele en rode punten op de kaart.

Ga met uw muis naar het station om de naam te zien.

Klik dan om waarnemingen en weersverwachtingen te zien.

kaart wijzigen: klik op de groene knoppen met een zwart kruis om in te zoomen, op de groene knop met een streepje om uit te zoomen of op de groene pijlen voor aangrenzende kaarten.


METAR-TAF: